Time;durP1;ratioP1;P1;durP2;ratioP2;P2;SDS_P1;SDS_P2;PMS_P1;PMS_P2;Temp;Humidity;BMP_temperature;BMP_pressure;BME280_temperature;BME280_humidity;BME280_pressure;Samples;Min_cycle;Max_cycle;Signal;HPM_P1;HPM_P2
2021/07/01 00:01:00;;;;;;;0.85;0.57;;;;;;;14.29;70.03;98308.19;5048529;28;20370;-68
2021/07/01 00:03:26;;;;;;;0.63;0.63;;;;;;;14.24;70.25;98310.94;5049849;28;20028;-69
2021/07/01 00:05:51;;;;;;;0.60;0.60;;;;;;;14.23;70.35;98304.09;5049921;28;20033;-69
2021/07/01 00:08:17;;;;;;;0.70;0.70;;;;;;;14.19;71.08;98305.94;5049778;28;20044;-68
2021/07/01 00:10:42;;;;;;;0.50;0.50;;;;;;;14.18;70.35;98306.00;5048648;28;20045;-68
2021/07/01 00:13:08;;;;;;;0.70;0.70;;;;;;;14.27;69.21;98309.97;5049634;28;20043;-68
2021/07/01 00:15:34;;;;;;;0.50;0.50;;;;;;;14.43;68.26;98306.75;5048192;28;20045;-68
2021/07/01 00:18:01;;;;;;;0.80;0.80;;;;;;;14.36;68.52;98307.91;5049974;28;20033;-68
2021/07/01 00:20:27;;;;;;;0.50;0.50;;;;;;;14.36;68.36;98300.16;5034415;28;20449;-68
2021/07/01 00:22:53;;;;;;;1.92;0.85;;;;;;;14.37;68.71;98299.28;5049311;28;20140;-68
2021/07/01 00:25:20;;;;;;;1.40;0.70;;;;;;;14.35;68.57;98295.91;5048331;28;20604;-68
2021/07/01 00:27:46;;;;;;;0.70;0.70;;;;;;;14.32;68.65;98290.00;5049938;28;20044;-68
2021/07/01 00:30:14;;;;;;;1.95;0.65;;;;;;;14.28;69.06;98286.69;5049351;28;20465;-68
2021/07/01 00:32:40;;;;;;;0.60;0.60;;;;;;;14.23;68.86;98280.03;5049308;28;20040;-68
2021/07/01 00:35:08;;;;;;;0.65;0.65;;;;;;;14.25;69.03;98275.69;5050412;28;20036;-68
2021/07/01 00:37:33;;;;;;;0.68;0.68;;;;;;;14.26;69.15;98285.09;5050665;28;20025;-68
2021/07/01 00:40:00;;;;;;;0.70;0.70;;;;;;;14.26;68.27;98275.59;5050128;28;20063;-68
2021/07/01 00:42:25;;;;;;;0.80;0.80;;;;;;;14.24;68.13;98271.41;5050441;28;20334;-68
2021/07/01 00:44:50;;;;;;;0.60;0.60;;;;;;;14.31;66.73;98273.69;5050007;28;20068;-68
2021/07/01 00:47:16;;;;;;;0.70;0.70;;;;;;;14.32;67.17;98262.47;5049963;28;20385;-68
2021/07/01 00:49:43;;;;;;;1.00;1.00;;;;;;;14.34;66.36;98265.81;5050895;28;20033;-68
2021/07/01 00:52:11;;;;;;;0.60;0.60;;;;;;;14.38;66.25;98264.84;5054102;28;20024;-68
2021/07/01 00:54:38;;;;;;;0.70;0.70;;;;;;;14.40;66.59;98265.63;5053409;28;20055;-68
2021/07/01 00:57:06;;;;;;;0.73;0.73;;;;;;;14.38;66.70;98259.69;5051425;28;20021;-68
2021/07/01 00:59:32;;;;;;;0.70;0.70;;;;;;;14.35;66.48;98257.22;5054263;28;20028;-68
2021/07/01 01:01:57;;;;;;;1.25;1.15;;;;;;;14.32;66.76;98259.91;5053461;28;20036;-68
2021/07/01 01:04:22;;;;;;;0.68;0.68;;;;;;;14.27;67.14;98264.38;5055261;28;20036;-68
2021/07/01 01:06:48;;;;;;;0.80;0.80;;;;;;;14.22;67.61;98256.00;5052555;28;20037;-68
2021/07/01 01:09:13;;;;;;;0.63;0.63;;;;;;;14.29;66.74;98254.03;5054248;28;20029;-68
2021/07/01 01:11:39;;;;;;;0.68;0.68;;;;;;;14.32;66.71;98253.91;5051175;28;20076;-67
2021/07/01 01:14:04;;;;;;;0.70;0.70;;;;;;;14.33;66.16;98250.41;5054306;28;20131;-68
2021/07/01 01:16:30;;;;;;;0.70;0.70;;;;;;;14.27;65.32;98246.34;5053149;28;20044;-68
2021/07/01 01:18:55;;;;;;;1.17;1.17;;;;;;;14.26;65.70;98251.56;5054215;28;20099;-68
2021/07/01 01:21:26;;;;;;;1.15;0.80;;;;;;;14.34;65.26;98247.75;5054217;28;20033;-68
2021/07/01 01:23:54;;;;;;;0.60;0.60;;;;;;;14.48;65.80;98254.97;5053726;28;20033;-68
2021/07/01 01:26:20;;;;;;;1.00;1.00;;;;;;;14.40;65.99;98257.88;5053050;28;20290;-68
2021/07/01 01:28:45;;;;;;;1.85;0.95;;;;;;;14.31;66.78;98257.38;5052384;28;20040;-69
2021/07/01 01:31:10;;;;;;;0.75;0.60;;;;;;;14.26;66.31;98249.81;5054378;28;20045;-68
2021/07/01 01:33:36;;;;;;;0.60;0.60;;;;;;;14.20;66.27;98247.50;5052884;28;20035;-69
2021/07/01 01:36:01;;;;;;;0.73;0.60;;;;;;;14.13;67.44;98251.22;5052982;28;20033;-69
2021/07/01 01:38:27;;;;;;;1.75;0.90;;;;;;;14.11;67.31;98245.28;5053235;28;20056;-63
2021/07/01 01:40:52;;;;;;;0.70;0.70;;;;;;;14.30;65.45;98251.38;5053155;28;20159;-62
2021/07/01 01:43:21;;;;;;;0.82;0.82;;;;;;;14.27;65.62;98241.19;5053718;28;20086;-62
2021/07/01 01:45:47;;;;;;;0.63;0.63;;;;;;;14.17;66.72;98245.03;5053765;28;20318;-62
2021/07/01 01:48:13;;;;;;;0.60;0.60;;;;;;;14.14;67.00;98253.72;5052891;28;20166;-62
2021/07/01 01:50:40;;;;;;;0.70;0.70;;;;;;;14.10;66.50;98244.44;5050774;28;20033;-62
2021/07/01 01:53:06;;;;;;;0.55;0.55;;;;;;;14.03;67.29;98244.75;5052541;28;20390;-62
2021/07/01 01:55:32;;;;;;;2.92;0.80;;;;;;;13.95;67.54;98237.31;5053483;28;20047;-62
2021/07/01 01:57:58;;;;;;;0.90;0.90;;;;;;;13.98;67.38;98251.81;5053606;28;20036;-63
2021/07/01 02:00:25;;;;;;;3.40;0.70;;;;;;;13.84;68.38;98241.19;5054259;28;20043;-63
2021/07/01 02:02:51;;;;;;;0.80;0.80;;;;;;;13.74;68.63;98243.28;5053870;28;20039;-63
2021/07/01 02:05:17;;;;;;;0.80;0.80;;;;;;;13.67;70.02;98236.66;5051838;28;20680;-63
2021/07/01 02:07:42;;;;;;;1.58;0.80;;;;;;;13.67;68.77;98231.50;5034219;28;20056;-63
2021/07/01 02:10:16;;;;;;;0.70;0.70;;;;;;;13.63;70.12;98235.94;5054118;28;20064;-63
2021/07/01 02:12:42;;;;;;;0.80;0.80;;;;;;;13.70;68.56;98234.84;5012054;28;20104;-63
2021/07/01 02:15:10;;;;;;;4.70;0.90;;;;;;;13.78;67.97;98234.53;5013284;28;20417;-63
2021/07/01 02:17:36;;;;;;;0.80;0.80;;;;;;;13.70;68.26;98227.09;5013120;28;20133;-63
2021/07/01 02:20:10;;;;;;;0.88;0.75;;;;;;;13.73;68.35;98236.44;5010993;28;20026;-62
2021/07/01 02:22:35;;;;;;;1.40;0.60;;;;;;;13.70;68.42;98234.84;5013284;28;20025;-62
2021/07/01 02:25:02;;;;;;;0.77;0.77;;;;;;;13.83;67.00;98232.63;5013176;28;20379;-62
2021/07/01 02:27:28;;;;;;;0.73;0.73;;;;;;;13.98;66.68;98236.34;5011419;28;20026;-62
2021/07/01 02:29:53;;;;;;;2.45;0.93;;;;;;;14.00;66.00;98242.28;5011451;28;20036;-62
2021/07/01 02:32:19;;;;;;;0.75;0.75;;;;;;;13.95;66.45;98244.19;5010513;28;20071;-62
2021/07/01 02:34:44;;;;;;;0.70;0.70;;;;;;;13.95;66.34;98247.63;5010970;28;20022;-62
2021/07/01 02:37:11;;;;;;;0.90;0.90;;;;;;;13.84;66.66;98256.63;5013559;28;20060;-62
2021/07/01 02:39:36;;;;;;;0.80;0.80;;;;;;;13.66;67.64;98253.03;5011645;28;20033;-62
2021/07/01 02:42:03;;;;;;;0.70;0.70;;;;;;;13.62;68.54;98272.91;5012125;28;20063;-62
2021/07/01 02:44:29;;;;;;;0.70;0.70;;;;;;;13.47;70.13;98276.03;5011393;28;20097;-62
2021/07/01 02:46:55;;;;;;;0.50;0.50;;;;;;;13.39;71.10;98272.06;5009527;28;20298;-63
2021/07/01 02:49:21;;;;;;;1.33;0.77;;;;;;;13.30;71.73;98272.38;5012088;28;20030;-63
2021/07/01 02:51:46;;;;;;;0.52;0.52;;;;;;;13.17;72.86;98275.41;5009756;28;20363;-62
2021/07/01 02:54:13;;;;;;;0.70;0.70;;;;;;;13.14;73.68;98272.09;5010752;28;20025;-62
2021/07/01 02:56:41;;;;;;;0.95;0.95;;;;;;;13.07;73.96;98271.41;5012412;28;20523;-63
2021/07/01 02:59:08;;;;;;;0.90;0.90;;;;;;;13.11;74.56;98277.38;5010117;28;20279;-63
2021/07/01 03:01:34;;;;;;;0.80;0.80;;;;;;;13.17;71.90;98282.28;5012203;28;20037;-62
2021/07/01 03:03:59;;;;;;;0.75;0.75;;;;;;;13.53;68.12;98283.56;5010709;28;20040;-63
2021/07/01 03:06:25;;;;;;;0.80;0.80;;;;;;;13.66;67.15;98284.75;5010886;28;20287;-63
2021/07/01 03:08:50;;;;;;;0.68;0.57;;;;;;;13.88;66.20;98289.97;5012026;28;20034;-62
2021/07/01 03:11:16;;;;;;;0.65;0.65;;;;;;;14.04;65.33;98279.94;5029153;28;20046;-62
2021/07/01 03:13:41;;;;;;;1.77;0.73;;;;;;;14.11;64.78;98284.78;5050345;28;20108;-63
2021/07/01 03:16:07;;;;;;;0.70;0.70;;;;;;;14.15;64.53;98286.34;5050832;28;20028;-62
2021/07/01 03:18:32;;;;;;;0.77;0.77;;;;;;;14.30;63.93;98286.66;5051029;28;20044;-62
2021/07/01 03:20:58;;;;;;;0.82;0.82;;;;;;;14.27;63.80;98287.59;5051927;28;20048;-63
2021/07/01 03:23:23;;;;;;;0.70;0.70;;;;;;;14.22;65.04;98288.66;5051797;28;20057;-63
2021/07/01 03:25:48;;;;;;;1.52;1.42;;;;;;;14.15;66.66;98295.81;5050417;28;20085;-63
2021/07/01 03:28:14;;;;;;;2.45;2.25;;;;;;;14.02;67.86;98300.59;5050431;28;20042;-63
2021/07/01 03:30:39;;;;;;;1.48;1.10;;;;;;;13.94;69.25;98304.38;5052057;28;20061;-63
2021/07/01 03:33:04;;;;;;;1.30;1.20;;;;;;;13.88;69.66;98304.56;5048681;28;20037;-62
2021/07/01 03:35:30;;;;;;;1.85;0.93;;;;;;;13.86;70.37;98302.09;5050749;28;20168;-62
2021/07/01 03:37:55;;;;;;;0.60;0.60;;;;;;;13.82;71.26;98309.97;5050746;28;20033;-63
2021/07/01 03:40:21;;;;;;;0.70;0.70;;;;;;;13.79;71.33;98300.59;5049888;28;20051;-63
2021/07/01 03:42:46;;;;;;;0.70;0.70;;;;;;;13.84;71.26;98308.16;5049278;28;20036;-63
2021/07/01 03:45:12;;;;;;;2.55;0.90;;;;;;;13.88;71.49;98315.72;5050927;28;20029;-63
2021/07/01 03:47:37;;;;;;;0.75;0.70;;;;;;;13.95;72.03;98314.63;5048271;28;20033;-63
2021/07/01 03:50:03;;;;;;;0.95;0.95;;;;;;;14.06;71.84;98319.38;5050998;28;20059;-63
2021/07/01 03:52:28;;;;;;;1.02;1.00;;;;;;;14.11;72.39;98320.88;5049784;28;20036;-63
2021/07/01 03:54:54;;;;;;;1.10;0.90;;;;;;;14.22;71.86;98317.88;5051016;28;20457;-63
2021/07/01 03:57:19;;;;;;;1.15;0.90;;;;;;;14.42;71.57;98322.31;5051282;28;20043;-62
2021/07/01 03:59:45;;;;;;;1.55;0.88;;;;;;;14.58;69.12;98325.94;5034653;28;20025;-62
2021/07/01 04:02:10;;;;;;;0.98;0.80;;;;;;;14.89;64.67;98328.13;5050687;28;20056;-62
2021/07/01 04:04:35;;;;;;;2.05;0.90;;;;;;;15.12;65.30;98335.75;5050281;28;20044;-62
2021/07/01 04:07:03;;;;;;;0.80;0.80;;;;;;;15.62;59.65;98335.34;5052319;28;20143;-62
2021/07/01 04:09:29;;;;;;;0.98;0.93;;;;;;;15.98;59.79;98333.72;5050854;28;20032;-62
2021/07/01 04:11:54;;;;;;;0.60;0.60;;;;;;;16.13;58.38;98332.16;5050408;28;20067;-63
2021/07/01 04:14:19;;;;;;;0.82;0.82;;;;;;;16.32;59.25;98339.03;5049554;28;20052;-63
2021/07/01 04:16:45;;;;;;;0.80;0.80;;;;;;;16.44;58.65;98343.63;5050077;28;20075;-63
2021/07/01 04:19:12;;;;;;;0.90;0.90;;;;;;;16.63;59.66;98342.78;5049722;28;20052;-63
2021/07/01 04:21:38;;;;;;;1.85;1.50;;;;;;;16.56;61.77;98346.53;5052207;28;20055;-62
2021/07/01 04:24:04;;;;;;;1.55;1.55;;;;;;;16.54;63.58;98364.75;5050250;28;20053;-62
2021/07/01 04:26:29;;;;;;;1.75;1.58;;;;;;;16.57;62.27;98353.38;5050707;28;20060;-62
2021/07/01 04:28:55;;;;;;;1.52;1.42;;;;;;;16.49;61.07;98358.09;5049976;28;20082;-62
2021/07/01 04:31:21;;;;;;;1.77;1.20;;;;;;;16.73;60.06;98356.94;5049957;28;20055;-62
2021/07/01 04:33:47;;;;;;;1.08;1.08;;;;;;;16.85;59.31;98362.38;5036371;28;20315;-62
2021/07/01 04:36:12;;;;;;;1.10;1.10;;;;;;;17.20;57.98;98352.03;5049528;28;20071;-62
2021/07/01 04:38:38;;;;;;;1.00;1.00;;;;;;;17.14;57.11;98362.72;5049452;28;20070;-62
2021/07/01 04:41:03;;;;;;;1.23;1.20;;;;;;;17.21;57.05;98357.16;5049342;28;20044;-62
2021/07/01 04:43:29;;;;;;;1.08;1.00;;;;;;;17.23;56.48;98357.88;5051020;28;20041;-61
2021/07/01 04:45:54;;;;;;;0.88;0.88;;;;;;;17.17;56.83;98350.44;5050353;28;20391;-62
2021/07/01 04:48:19;;;;;;;0.93;0.90;;;;;;;17.00;57.56;98357.38;5050488;28;20028;-62
2021/07/01 04:50:45;;;;;;;0.88;0.88;;;;;;;17.05;57.35;98369.19;5048372;28;20036;-62
2021/07/01 04:53:10;;;;;;;1.00;1.00;;;;;;;17.26;55.34;98362.09;5047333;28;20032;-62
2021/07/01 04:55:36;;;;;;;0.82;0.82;;;;;;;17.42;55.38;98359.56;5049893;28;20043;-62
2021/07/01 04:58:01;;;;;;;1.00;1.00;;;;;;;17.57;56.04;98358.75;5050368;28;20070;-62
2021/07/01 05:00:26;;;;;;;0.90;0.90;;;;;;;17.74;55.65;98356.16;5049012;28;20033;-62
2021/07/01 05:02:52;;;;;;;0.80;0.80;;;;;;;18.11;55.11;98355.94;5050316;28;20059;-62
2021/07/01 05:05:17;;;;;;;1.50;0.82;;;;;;;18.15;54.12;98356.59;5049247;28;20043;-62
2021/07/01 05:07:44;;;;;;;1.00;1.00;;;;;;;18.20;54.79;98355.41;5048522;28;20033;-62
2021/07/01 05:10:11;;;;;;;2.88;0.90;;;;;;;18.36;53.36;98355.44;5048167;28;20079;-62
2021/07/01 05:12:37;;;;;;;0.90;0.90;;;;;;;18.30;53.07;98355.75;5049112;28;20029;-62
2021/07/01 05:15:03;;;;;;;1.25;1.13;;;;;;;18.33;53.04;98368.53;5050226;28;20021;-62
2021/07/01 05:17:29;;;;;;;1.20;1.10;;;;;;;18.05;53.81;98368.38;5050303;28;20116;-62
2021/07/01 05:19:54;;;;;;;0.80;0.80;;;;;;;18.26;53.24;98369.81;5050527;28;20032;-62
2021/07/01 05:22:19;;;;;;;1.55;0.90;;;;;;;18.42;52.20;98372.41;5046655;28;20021;-62
2021/07/01 05:24:45;;;;;;;0.80;0.80;;;;;;;18.41;51.91;98394.13;5048317;28;20074;-62
2021/07/01 05:27:10;;;;;;;1.10;1.10;;;;;;;18.46;52.31;98373.94;5048816;28;20056;-63
2021/07/01 05:29:36;;;;;;;0.90;0.90;;;;;;;18.49;52.28;98363.38;5048163;28;20036;-62
2021/07/01 05:32:01;;;;;;;1.00;1.00;;;;;;;18.46;52.04;98386.91;5049869;28;20025;-62
2021/07/01 05:34:26;;;;;;;1.00;1.00;;;;;;;18.38;51.81;98389.91;5050366;28;20043;-62
2021/07/01 05:36:52;;;;;;;2.65;1.10;;;;;;;18.19;52.85;98389.25;5049725;28;20406;-63
2021/07/01 05:39:17;;;;;;;1.17;1.17;;;;;;;18.08;53.62;98384.59;5052678;28;20765;-63
2021/07/01 05:41:43;;;;;;;1.08;0.93;;;;;;;18.20;52.79;98385.72;5052915;28;20519;-62
2021/07/01 05:44:08;;;;;;;1.27;1.27;;;;;;;18.29;53.35;98390.41;5051115;28;20021;-62
2021/07/01 05:46:34;;;;;;;2.53;1.10;;;;;;;18.03;52.76;98386.63;5038921;28;20071;-62
2021/07/01 05:48:59;;;;;;;1.35;1.10;;;;;;;17.78;53.90;98381.88;5053692;28;20151;-63
2021/07/01 05:51:27;;;;;;;1.67;0.90;;;;;;;17.71;54.14;98392.63;5053739;28;20053;-62
2021/07/01 05:54:14;;;;;;;0.90;0.90;;;;;;;17.80;53.54;98394.75;5038051;28;20028;-62
2021/07/01 05:56:39;;;;;;;2.75;1.00;;;;;;;17.76;54.17;98391.50;5053063;28;20029;-62
2021/07/01 05:59:10;;;;;;;1.20;1.10;;;;;;;17.75;54.56;98383.78;5053806;28;20040;-61
2021/07/01 06:01:36;;;;;;;2.15;1.10;;;;;;;17.56;54.96;98390.81;5051541;28;20108;-62
2021/07/01 06:04:09;;;;;;;1.02;1.02;;;;;;;17.90;54.07;98398.56;5052468;28;20069;-62
2021/07/01 06:06:36;;;;;;;1.00;1.00;;;;;;;17.85;53.51;98400.56;5037300;28;20029;-62
2021/07/01 06:09:05;;;;;;;0.90;0.90;;;;;;;18.07;52.62;98387.31;5051855;28;20107;-62
2021/07/01 06:11:35;;;;;;;0.95;0.95;;;;;;;18.25;53.44;98402.72;5051464;28;20053;-62
2021/07/01 06:14:07;;;;;;;3.13;0.88;;;;;;;18.35;52.46;98399.63;5052640;28;20025;-62
2021/07/01 06:16:35;;;;;;;1.05;0.80;;;;;;;18.44;51.45;98412.94;5052752;28;20381;-62
2021/07/01 06:19:04;;;;;;;1.02;0.85;;;;;;;18.34;52.13;98403.13;5054005;28;20112;-62
2021/07/01 06:21:30;;;;;;;1.05;1.05;;;;;;;18.29;52.47;98410.34;5052585;28;20401;-62
2021/07/01 06:23:56;;;;;;;1.40;1.40;;;;;;;18.25;52.96;98407.06;5051953;28;20033;-62
2021/07/01 06:26:28;;;;;;;0.93;0.90;;;;;;;18.35;52.22;98395.28;5052725;28;20047;-61
2021/07/01 06:28:55;;;;;;;1.38;0.98;;;;;;;18.27;52.45;98405.22;5049325;28;20032;-61
2021/07/01 06:31:20;;;;;;;1.40;1.10;;;;;;;18.25;52.60;98401.88;5052619;28;20107;-62
2021/07/01 06:33:47;;;;;;;0.88;0.88;;;;;;;18.06;52.74;98407.22;5048978;28;20108;-67
2021/07/01 06:36:14;;;;;;;1.17;0.73;;;;;;;18.12;52.84;98409.47;5050935;28;20040;-62
2021/07/01 06:38:45;;;;;;;1.00;1.00;;;;;;;18.11;52.99;98401.78;5050696;28;20550;-63
2021/07/01 06:41:12;;;;;;;1.40;1.40;;;;;;;18.08;52.99;98402.78;5047341;28;20274;-63
2021/07/01 06:43:39;;;;;;;1.85;1.00;;;;;;;18.13;53.45;98400.78;5051121;28;20565;-63
2021/07/01 06:46:06;;;;;;;1.10;1.00;;;;;;;18.07;53.30;98402.88;5050316;28;20147;-62
2021/07/01 06:48:32;;;;;;;0.75;0.75;;;;;;;17.95;53.93;98401.72;5051049;28;20329;-62
2021/07/01 06:51:00;;;;;;;1.00;1.00;;;;;;;17.96;53.40;98408.59;5049098;28;20029;-62
2021/07/01 06:53:27;;;;;;;0.95;0.95;;;;;;;18.06;54.01;98406.38;5048106;28;20442;-62
2021/07/01 06:55:53;;;;;;;0.82;0.82;;;;;;;17.92;53.60;98414.88;5049702;28;20102;-62
2021/07/01 06:58:20;;;;;;;2.33;0.82;;;;;;;17.90;53.04;98416.72;5050130;28;20032;-62
2021/07/01 07:00:46;;;;;;;0.90;0.90;;;;;;;17.69;53.20;98415.22;5048146;28;20366;-62
2021/07/01 07:03:19;;;;;;;0.80;0.80;;;;;;;17.72;53.46;98402.09;5049416;28;20033;-62
2021/07/01 07:05:48;;;;;;;0.80;0.80;;;;;;;17.75;53.66;98414.91;5050815;28;20032;-62
2021/07/01 07:08:14;;;;;;;1.10;1.10;;;;;;;17.83;53.34;98406.72;5050360;28;20333;-63
2021/07/01 07:10:42;;;;;;;3.03;1.30;;;;;;;18.02;53.68;98400.50;5049669;28;20053;-62
2021/07/01 07:13:08;;;;;;;1.00;1.00;;;;;;;18.18;53.22;98418.69;5050380;28;20036;-62
2021/07/01 07:15:33;;;;;;;1.13;1.00;;;;;;;18.26;52.67;98411.34;5050271;28;20029;-62
2021/07/01 07:18:23;;;;;;;2.60;1.00;;;;;;;18.36;53.55;98412.53;5048942;28;20055;-62
2021/07/01 07:21:01;;;;;;;0.90;0.90;;;;;;;18.69;51.58;98415.06;5049794;28;20079;-61
2021/07/01 07:23:33;;;;;;;2.13;1.20;;;;;;;19.27;49.20;98422.19;5050521;28;20378;-61
2021/07/01 07:26:07;;;;;;;0.77;0.77;;;;;;;19.69;49.75;98421.50;5051786;28;20067;-61
2021/07/01 07:28:34;;;;;;;1.00;1.00;;;;;;;19.75;48.55;98428.94;5048856;28;20028;-61
2021/07/01 07:31:00;;;;;;;0.80;0.80;;;;;;;19.67;48.08;98421.59;5052045;28;20021;-61
2021/07/01 07:33:28;;;;;;;0.90;0.90;;;;;;;19.77;48.05;98420.13;5048346;28;20029;-62
2021/07/01 07:35:55;;;;;;;1.02;1.02;;;;;;;19.54;47.65;98423.22;5049256;28;20435;-62
2021/07/01 07:38:24;;;;;;;0.70;0.70;;;;;;;19.82;47.29;98419.81;5049812;28;20060;-62
2021/07/01 07:40:50;;;;;;;1.10;1.10;;;;;;;19.75;47.49;98415.91;5049909;28;20028;-62
2021/07/01 07:43:18;;;;;;;2.97;1.08;;;;;;;19.82;48.01;98423.25;5051337;28;20257;-62
2021/07/01 07:45:43;;;;;;;0.90;0.90;;;;;;;19.48;48.00;98418.38;5051203;28;20060;-63
2021/07/01 07:48:08;;;;;;;1.20;1.10;;;;;;;19.28;47.84;98414.31;5050204;28;20056;-63
2021/07/01 07:50:37;;;;;;;2.13;1.08;;;;;;;19.24;48.52;98417.16;5048222;28;20033;-62
2021/07/01 07:53:05;;;;;;;1.55;1.08;;;;;;;19.34;49.55;98426.13;5052048;28;20032;-62
2021/07/01 07:55:32;;;;;;;0.90;0.90;;;;;;;19.66;49.11;98416.47;5048459;28;20404;-62
2021/07/01 07:58:02;;;;;;;0.70;0.70;;;;;;;19.84;48.47;98413.63;5051235;28;20416;-62
2021/07/01 08:00:28;;;;;;;1.25;1.00;;;;;;;19.82;47.46;98427.63;5049682;28;20031;-62
2021/07/01 08:03:01;;;;;;;0.98;0.98;;;;;;;19.83;47.42;98417.13;5051051;28;20376;-62
2021/07/01 08:05:30;;;;;;;0.70;0.70;;;;;;;20.01;46.22;98428.22;5048157;28;20123;-62
2021/07/01 08:07:56;;;;;;;1.65;0.85;;;;;;;20.44;45.53;98427.31;5050606;28;20032;-63
2021/07/01 08:10:28;;;;;;;1.02;1.02;;;;;;;20.48;46.06;98414.91;5050101;28;20468;-63
2021/07/01 08:13:01;;;;;;;1.08;1.08;;;;;;;20.35;44.41;98414.00;5049981;28;20032;-62
2021/07/01 08:15:28;;;;;;;0.90;0.90;;;;;;;20.43;45.24;98432.59;5050268;28;20033;-62
2021/07/01 08:17:53;;;;;;;1.13;1.08;;;;;;;20.76;45.51;98433.06;5046337;28;20033;-62
2021/07/01 08:20:21;;;;;;;0.88;0.88;;;;;;;21.09;44.93;98435.28;5048315;28;20086;-63
2021/07/01 08:22:49;;;;;;;0.73;0.73;;;;;;;20.92;45.33;98440.75;5048895;28;20156;-62
2021/07/01 08:25:16;;;;;;;0.90;0.90;;;;;;;20.82;45.36;98426.66;5048963;28;20071;-62
2021/07/01 08:27:43;;;;;;;0.80;0.80;;;;;;;20.78;46.29;98438.22;5047002;28;20783;-61
2021/07/01 08:30:10;;;;;;;1.42;0.88;;;;;;;20.90;45.81;98433.06;5049119;28;20120;-63
2021/07/01 08:32:38;;;;;;;1.55;1.17;;;;;;;20.82;45.87;98430.09;5050037;28;20284;-63
2021/07/01 08:35:04;;;;;;;2.90;0.90;;;;;;;20.84;46.06;98423.00;5050085;28;20044;-62
2021/07/01 08:37:31;;;;;;;1.13;1.13;;;;;;;20.76;46.07;98432.25;5050718;28;20379;-62
2021/07/01 08:40:06;;;;;;;0.90;0.90;;;;;;;20.83;46.04;98439.59;5049987;28;20055;-62
2021/07/01 08:42:35;;;;;;;2.65;0.80;;;;;;;20.40;46.81;98438.00;5051260;28;20029;-62
2021/07/01 08:45:09;;;;;;;2.15;0.80;;;;;;;20.33;46.88;98447.94;5050510;28;20258;-62
2021/07/01 08:47:43;;;;;;;0.80;0.80;;;;;;;20.32;45.56;98456.69;5050648;28;20031;-62
2021/07/01 08:50:11;;;;;;;1.52;0.88;;;;;;;20.07;47.42;98436.47;5036339;28;20339;-63
2021/07/01 08:53:13;;;;;;;1.85;0.80;;;;;;;20.30;46.73;98431.66;5024822;28;20381;-63
2021/07/01 08:55:40;;;;;;;0.80;0.80;;;;;;;20.41;46.19;98444.88;5049755;28;20512;-63
2021/07/01 08:58:06;;;;;;;1.13;0.70;;;;;;;20.42;44.88;98436.13;5049944;28;20423;-64
2021/07/01 09:00:38;;;;;;;0.93;0.80;;;;;;;20.44;45.11;98439.47;5049399;28;20086;-62
2021/07/01 09:03:09;;;;;;;0.77;0.77;;;;;;;20.77;45.04;98431.31;5050513;28;20021;-62
2021/07/01 09:05:36;;;;;;;0.80;0.80;;;;;;;20.84;44.16;98433.44;5051822;28;20059;-62
2021/07/01 09:08:08;;;;;;;1.58;1.00;;;;;;;20.92;44.78;98435.53;5049317;28;20044;-64
2021/07/01 09:10:34;;;;;;;1.00;1.00;;;;;;;20.72;44.77;98436.81;5049583;28;20081;-62
2021/07/01 09:13:03;;;;;;;1.20;0.75;;;;;;;20.58;44.04;98442.03;5055062;28;20040;-63
2021/07/01 09:15:30;;;;;;;2.25;1.00;;;;;;;20.42;45.86;98447.38;5038398;28;20083;-62
2021/07/01 09:17:56;;;;;;;2.72;0.90;;;;;;;20.31;45.94;98449.81;5052577;28;20025;-63
2021/07/01 09:20:34;;;;;;;1.15;1.10;;;;;;;20.41;46.13;98457.91;5053880;28;20078;-63
2021/07/01 09:23:02;;;;;;;0.95;0.95;;;;;;;20.19;46.64;98454.91;5056026;28;20035;-63
2021/07/01 09:25:27;;;;;;;0.93;0.93;;;;;;;20.21;46.56;98455.63;5053542;28;20048;-62
2021/07/01 09:27:55;;;;;;;0.93;0.93;;;;;;;20.43;46.19;98443.00;5053331;28;20045;-62
2021/07/01 09:30:26;;;;;;;2.33;0.90;;;;;;;20.49;46.22;98447.84;5052502;28;20040;-63
2021/07/01 09:33:01;;;;;;;0.70;0.70;;;;;;;20.17;46.23;98457.59;5052772;28;20139;-63
2021/07/01 09:35:30;;;;;;;0.60;0.60;;;;;;;20.48;46.09;98446.16;5054093;28;20025;-63
2021/07/01 09:38:00;;;;;;;0.98;0.90;;;;;;;20.55;46.33;98449.22;5052515;28;20029;-63
2021/07/01 09:40:26;;;;;;;0.85;0.85;;;;;;;20.71;44.84;98450.75;5054211;28;20025;-63
2021/07/01 09:42:57;;;;;;;0.90;0.90;;;;;;;20.46;44.28;98438.44;5054135;28;20047;-63
2021/07/01 09:45:24;;;;;;;1.13;1.08;;;;;;;20.40;44.92;98449.25;5051639;28;20044;-63
2021/07/01 09:47:56;;;;;;;3.40;0.90;;;;;;;20.51;44.82;98443.38;5053934;28;20060;-63
2021/07/01 09:50:26;;;;;;;1.10;1.10;;;;;;;20.96;44.09;98448.28;5054530;28;20055;-64
2021/07/01 09:52:56;;;;;;;0.85;0.85;;;;;;;21.11;44.07;98440.41;5053432;28;20045;-64
2021/07/01 09:55:30;;;;;;;0.80;0.80;;;;;;;21.42;42.39;98437.53;5051550;28;20255;-64
2021/07/01 09:58:06;;;;;;;0.70;0.70;;;;;;;21.26;42.85;98439.47;5053385;28;20040;-63
2021/07/01 10:00:31;;;;;;;1.05;0.93;;;;;;;21.28;43.19;98434.97;5052427;28;20753;-64
2021/07/01 10:03:07;;;;;;;0.88;0.88;;;;;;;21.01;42.77;98429.75;5051862;28;20029;-63
2021/07/01 10:05:33;;;;;;;0.93;0.93;;;;;;;20.95;43.47;98438.81;5053602;28;20382;-63
2021/07/01 10:07:59;;;;;;;1.05;0.93;;;;;;;21.09;43.88;98430.06;5053300;28;20041;-65
2021/07/01 10:10:25;;;;;;;0.90;0.82;;;;;;;20.74;45.43;98427.16;5053455;28;20031;-62
2021/07/01 10:12:55;;;;;;;1.00;1.00;;;;;;;20.89;45.58;98426.16;5053314;28;20033;-64
2021/07/01 10:15:29;;;;;;;1.00;1.00;;;;;;;20.73;45.70;98409.00;5051168;28;20052;-64
2021/07/01 10:18:09;;;;;;;0.98;0.98;;;;;;;20.90;45.87;98414.81;5051104;28;20033;-63
2021/07/01 10:20:36;;;;;;;2.17;0.85;;;;;;;20.93;45.09;98412.00;5052125;28;20350;-64
2021/07/01 10:23:04;;;;;;;0.90;0.90;;;;;;;21.07;44.80;98416.31;5051717;28;20028;-64
2021/07/01 10:25:31;;;;;;;1.75;0.80;;;;;;;21.08;43.69;98422.38;5051978;28;20411;-63
2021/07/01 10:28:09;;;;;;;0.95;0.95;;;;;;;21.33;43.95;98425.09;5051436;28;20040;-63
2021/07/01 10:30:34;;;;;;;0.95;0.95;;;;;;;21.39;43.44;98422.91;5053779;28;20364;-62
2021/07/01 10:33:00;;;;;;;1.00;1.00;;;;;;;21.25;44.06;98416.94;5052322;28;20022;-61
2021/07/01 10:35:33;;;;;;;0.75;0.75;;;;;;;21.07;43.80;98418.09;5052595;28;20071;-63
2021/07/01 10:38:03;;;;;;;1.05;0.90;;;;;;;21.29;43.21;98416.63;5052128;28;20032;-63
2021/07/01 10:40:30;;;;;;;0.80;0.80;;;;;;;21.51;43.08;98418.66;5049842;28;20029;-64
2021/07/01 10:42:56;;;;;;;1.10;1.05;;;;;;;21.08;43.35;98417.16;5051477;28;20051;-62
2021/07/01 10:45:22;;;;;;;0.80;0.80;;;;;;;21.08;44.28;98409.34;5051367;28;20041;-62
2021/07/01 10:47:48;;;;;;;0.85;0.85;;;;;;;21.31;44.35;98400.88;5049540;28;20047;-63
2021/07/01 10:50:20;;;;;;;1.00;1.00;;;;;;;20.99;44.53;98405.56;5049156;28;20028;-63
2021/07/01 10:52:46;;;;;;;1.30;0.95;;;;;;;20.90;44.13;98406.97;5048311;28;20025;-63
2021/07/01 10:55:13;;;;;;;1.95;1.00;;;;;;;20.97;44.83;98404.81;5046523;28;20418;-62
2021/07/01 10:57:53;;;;;;;1.05;1.05;;;;;;;21.15;44.75;98408.03;5050999;28;20094;-62
2021/07/01 11:00:44;;;;;;;0.73;0.73;;;;;;;21.11;43.20;98409.13;5050435;28;20029;-62
2021/07/01 11:03:21;;;;;;;0.82;0.82;;;;;;;21.16;44.41;98410.53;5050810;28;20056;-63
2021/07/01 11:05:48;;;;;;;1.05;1.00;;;;;;;21.44;43.35;98414.75;5049732;28;20056;-63
2021/07/01 11:08:26;;;;;;;1.50;0.80;;;;;;;21.55;43.71;98399.25;5049566;28;20054;-62
2021/07/01 11:10:52;;;;;;;1.15;0.80;;;;;;;21.57;43.82;98399.97;5047447;28;20418;-63
2021/07/01 11:13:18;;;;;;;0.77;0.77;;;;;;;21.73;42.28;98408.44;5051726;28;20045;-62
2021/07/01 11:16:04;;;;;;;0.77;0.77;;;;;;;21.59;42.11;98395.50;5050802;28;20255;-62
2021/07/01 11:18:44;;;;;;;0.90;0.90;;;;;;;21.61;42.53;98397.97;5051829;28;20021;-63
2021/07/01 11:21:13;;;;;;;0.60;0.60;;;;;;;21.83;41.94;98392.97;5049117;28;20029;-63
2021/07/01 11:23:40;;;;;;;0.85;0.85;;;;;;;21.55;42.84;98399.25;5049643;28;20155;-62
2021/07/01 11:26:24;;;;;;;1.45;1.00;;;;;;;21.27;43.32;98399.41;5050620;28;20286;-61
2021/07/01 11:28:50;;;;;;;0.70;0.70;;;;;;;21.27;43.62;98399.41;5050847;28;20028;-69
2021/07/01 11:31:16;;;;;;;0.80;0.80;;;;;;;21.35;43.17;98397.13;5052800;28;20390;-70
2021/07/01 11:33:49;;;;;;;0.80;0.80;;;;;;;21.66;43.05;98399.34;5050056;28;20036;-63
2021/07/01 11:36:16;;;;;;;1.00;1.00;;;;;;;21.62;42.84;98389.22;5050154;28;20027;-63